createdAt,value
2023-06-04T00:01:43.377Z,65.49
2023-06-04T00:04:10.624Z,65.84
2023-06-04T00:06:38.284Z,65.88
2023-06-04T00:09:05.534Z,65.88
2023-06-04T00:11:35.112Z,65.69
2023-06-04T00:14:02.801Z,65.97
2023-06-04T00:16:30.874Z,65.76
2023-06-04T00:18:58.175Z,65.78
2023-06-04T00:21:25.342Z,66.05
2023-06-04T00:23:52.691Z,66.41
2023-06-04T00:26:19.976Z,66.29
2023-06-04T00:28:49.113Z,66.93
2023-06-04T00:31:17.007Z,66.67
2023-06-04T00:33:44.742Z,66.59
2023-06-04T00:36:11.937Z,67.33
2023-06-04T00:38:39.129Z,67.12
2023-06-04T00:41:06.659Z,67.23
2023-06-04T00:43:34.612Z,67.26
2023-06-04T00:46:03.612Z,67.27
2023-06-04T00:48:31.780Z,67.51
2023-06-04T00:50:59.021Z,67.78
2023-06-04T00:53:27.338Z,67.92
2023-06-04T00:55:54.576Z,68.13
2023-06-04T00:58:22.176Z,68.39
2023-06-04T01:00:49.501Z,68.42
2023-06-04T01:03:19.568Z,68.52
2023-06-04T01:05:55.571Z,68.17
2023-06-04T01:08:23.750Z,68.79
2023-06-04T01:10:54.853Z,68.74
2023-06-04T01:13:22.149Z,68.75
2023-06-04T01:15:49.965Z,68.91
2023-06-04T01:18:30.014Z,69.14
2023-06-04T01:21:02.751Z,68.90
2023-06-04T01:23:59.867Z,69.03
2023-06-04T01:26:28.133Z,69.01
2023-06-04T01:28:56.223Z,69.34
2023-06-04T01:31:24.271Z,69.11
2023-06-04T01:33:54.923Z,68.99
2023-06-04T01:36:22.146Z,69.16
2023-06-04T01:38:49.378Z,69.21
2023-06-04T01:41:18.472Z,69.27
2023-06-04T01:43:46.316Z,68.97
2023-06-04T01:46:13.587Z,69.01
2023-06-04T01:48:42.053Z,69.32
2023-06-04T01:51:09.684Z,69.23
2023-06-04T01:53:38.995Z,69.64
2023-06-04T01:56:06.734Z,69.63
2023-06-04T01:58:35.089Z,69.65
2023-06-04T02:01:04.659Z,69.73
2023-06-04T02:03:38.092Z,69.57
2023-06-04T02:06:09.516Z,69.88
2023-06-04T02:08:37.488Z,70.14
2023-06-04T02:11:05.766Z,70.51
2023-06-04T02:13:33.373Z,70.58
2023-06-04T02:16:00.689Z,70.25
2023-06-04T02:18:28.161Z,70.43
2023-06-04T02:20:55.850Z,70.36
2023-06-04T02:23:24.760Z,70.37
2023-06-04T02:25:53.885Z,70.34
2023-06-04T02:28:21.916Z,70.25
2023-06-04T02:30:49.152Z,70.67
2023-06-04T02:33:17.139Z,70.72
2023-06-04T02:35:44.723Z,70.44
2023-06-04T02:38:13.249Z,70.29
2023-06-04T02:40:41.128Z,70.73
2023-06-04T02:43:08.923Z,70.93
2023-06-04T02:45:36.461Z,71.14
2023-06-04T02:48:03.869Z,71.00
2023-06-04T02:50:31.584Z,71.03
2023-06-04T02:52:59.422Z,70.35
2023-06-04T02:55:27.073Z,70.41
2023-06-04T02:57:54.542Z,70.75
2023-06-04T03:00:21.873Z,70.86
2023-06-04T03:02:50.080Z,70.57
2023-06-04T03:05:19.115Z,71.35
2023-06-04T03:07:47.475Z,72.47
2023-06-04T03:10:16.255Z,72.36
2023-06-04T03:12:44.829Z,71.89
2023-06-04T03:15:12.175Z,71.82
2023-06-04T03:17:39.813Z,71.11
2023-06-04T03:20:08.496Z,71.39
2023-06-04T03:22:37.083Z,72.00
2023-06-04T03:25:05.149Z,71.47
2023-06-04T03:27:33.349Z,71.31
2023-06-04T03:30:00.873Z,71.35
2023-06-04T03:32:34.563Z,71.60
2023-06-04T03:35:02.537Z,71.27
2023-06-04T03:37:30.079Z,70.70
2023-06-04T03:39:57.808Z,70.84
2023-06-04T03:42:25.112Z,71.10
2023-06-04T03:44:52.819Z,70.74
2023-06-04T03:47:21.083Z,69.89
2023-06-04T03:49:48.684Z,70.09
2023-06-04T03:52:16.482Z,69.97
2023-06-04T03:54:44.140Z,69.68
2023-06-04T03:57:12.180Z,70.29
2023-06-04T03:59:39.826Z,69.72
2023-06-04T04:02:08.112Z,69.64
2023-06-04T04:04:35.966Z,69.72
2023-06-04T04:07:03.598Z,69.38
2023-06-04T04:09:31.204Z,69.28
2023-06-04T04:11:59.355Z,68.98
2023-06-04T04:14:27.004Z,68.97
2023-06-04T04:16:54.723Z,68.62
2023-06-04T04:19:22.452Z,68.57
2023-06-04T04:21:50.209Z,68.25
2023-06-04T04:24:25.641Z,67.86
2023-06-04T04:26:54.616Z,67.04
2023-06-04T04:29:26.076Z,67.50
2023-06-04T04:31:53.706Z,66.67
2023-06-04T04:34:23.062Z,66.41
2023-06-04T04:36:54.004Z,66.41
2023-06-04T04:39:25.300Z,66.35
2023-06-04T04:41:55.647Z,65.48
2023-06-04T04:44:22.930Z,65.22
2023-06-04T04:46:50.727Z,65.25
2023-06-04T04:49:18.154Z,65.64
2023-06-04T04:51:45.557Z,65.83
2023-06-04T04:54:13.474Z,65.63
2023-06-04T04:56:42.562Z,65.48
2023-06-04T04:59:10.057Z,64.55
2023-06-04T05:01:37.681Z,63.87
2023-06-04T05:04:07.240Z,63.12
2023-06-04T05:06:38.880Z,62.82
2023-06-04T05:09:08.108Z,62.36
2023-06-04T05:11:36.975Z,62.33
2023-06-04T05:14:04.956Z,62.32
2023-06-04T05:16:32.580Z,61.89
2023-06-04T05:19:01.571Z,60.61
2023-06-04T05:21:33.697Z,61.63
2023-06-04T05:24:04.782Z,61.72
2023-06-04T05:26:35.776Z,60.80
2023-06-04T05:29:09.889Z,60.29
2023-06-04T05:31:41.585Z,59.18
2023-06-04T05:34:17.884Z,58.32
2023-06-04T05:36:46.859Z,58.55
2023-06-04T05:39:15.299Z,57.24
2023-06-04T05:42:00.843Z,55.50
2023-06-04T05:44:28.703Z,55.29
2023-06-04T05:46:56.565Z,55.22
2023-06-04T05:49:25.647Z,55.56
2023-06-04T05:51:53.938Z,55.57
2023-06-04T05:54:21.789Z,54.40
2023-06-04T05:56:50.364Z,54.10
2023-06-04T05:59:17.685Z,54.20
2023-06-04T06:01:44.894Z,52.45
2023-06-04T06:04:13.732Z,52.08
2023-06-04T06:06:44.968Z,51.78
2023-06-04T06:09:12.294Z,50.79
2023-06-04T06:11:39.776Z,51.02
2023-06-04T06:14:07.043Z,50.99
2023-06-04T06:16:34.432Z,50.34
2023-06-04T06:19:03.085Z,49.80
2023-06-04T06:21:31.044Z,49.78
2023-06-04T06:23:58.473Z,50.98
2023-06-04T06:26:26.335Z,50.30
2023-06-04T06:28:57.264Z,50.54
2023-06-04T06:31:25.103Z,51.11
2023-06-04T06:33:52.388Z,50.57
2023-06-04T06:36:20.118Z,50.79
2023-06-04T06:38:47.741Z,49.31
2023-06-04T06:41:15.071Z,48.84
2023-06-04T06:43:42.261Z,48.66
2023-06-04T06:46:09.598Z,46.96
2023-06-04T06:48:38.060Z,47.55
2023-06-04T06:51:05.420Z,47.76
2023-06-04T06:53:33.437Z,47.66
2023-06-04T06:56:00.647Z,47.76
2023-06-04T06:58:28.083Z,47.15
2023-06-04T07:00:57.852Z,46.54
2023-06-04T07:03:25.593Z,46.44
2023-06-04T07:05:53.445Z,47.50
2023-06-04T07:08:22.401Z,47.59
2023-06-04T07:10:49.965Z,47.47
2023-06-04T07:13:18.338Z,46.84
2023-06-04T07:15:45.560Z,46.89
2023-06-04T07:18:13.646Z,44.80
2023-06-04T07:20:41.534Z,44.80
2023-06-04T07:23:09.129Z,44.54
2023-06-04T07:25:36.531Z,45.25
2023-06-04T07:28:05.162Z,46.09
2023-06-04T07:30:33.141Z,45.69
2023-06-04T07:33:00.696Z,45.57
2023-06-04T07:35:28.021Z,45.04
2023-06-04T07:37:55.211Z,44.42
2023-06-04T07:40:22.833Z,44.64
2023-06-04T07:42:50.356Z,44.90
2023-06-04T07:45:18.106Z,45.07
2023-06-04T07:47:46.340Z,44.66
2023-06-04T07:50:13.829Z,43.38
2023-06-04T07:52:41.419Z,43.65
2023-06-04T07:55:09.654Z,43.60
2023-06-04T07:57:37.428Z,43.55
2023-06-04T08:00:06.705Z,42.88
2023-06-04T08:02:39.098Z,42.19
2023-06-04T08:05:06.795Z,41.03
2023-06-04T08:07:34.625Z,41.52
2023-06-04T08:10:02.240Z,41.43
2023-06-04T08:12:29.799Z,39.67
2023-06-04T08:14:58.449Z,40.71
2023-06-04T08:17:25.996Z,40.58
2023-06-04T08:19:53.486Z,40.59
2023-06-04T08:22:20.846Z,39.80
2023-06-04T08:24:48.433Z,40.57
2023-06-04T08:27:15.660Z,39.77
2023-06-04T08:29:42.843Z,39.41
2023-06-04T08:32:10.630Z,39.42
2023-06-04T08:34:37.903Z,38.42
2023-06-04T08:37:05.337Z,39.66
2023-06-04T08:39:34.380Z,37.92
2023-06-04T08:42:03.264Z,38.65
2023-06-04T08:44:31.627Z,38.46
2023-06-04T08:47:07.277Z,39.27
2023-06-04T08:49:38.781Z,40.66
2023-06-04T08:52:07.370Z,40.71
2023-06-04T08:54:35.238Z,38.61
2023-06-04T08:57:03.445Z,37.07
2023-06-04T08:59:30.788Z,36.87
2023-06-04T09:01:58.244Z,37.54
2023-06-04T09:04:25.691Z,37.97
2023-06-04T09:06:53.664Z,36.80
2023-06-04T09:09:20.899Z,37.78
2023-06-04T09:11:55.831Z,37.61
2023-06-04T09:14:23.482Z,37.71
2023-06-04T09:16:52.350Z,37.43
2023-06-04T09:19:19.963Z,37.01
2023-06-04T09:21:55.955Z,37.10
2023-06-04T09:24:27.258Z,37.49
2023-06-04T09:26:54.465Z,35.36
2023-06-04T09:29:22.090Z,36.20
2023-06-04T09:31:58.824Z,36.30
2023-06-04T09:34:30.139Z,36.88
2023-06-04T09:36:57.778Z,36.71
2023-06-04T09:39:25.232Z,36.34
2023-06-04T09:42:03.723Z,35.83
2023-06-04T09:44:31.566Z,35.32
2023-06-04T09:46:59.644Z,36.14
2023-06-04T09:49:27.138Z,35.92
2023-06-04T09:51:57.535Z,35.99
2023-06-04T09:54:24.788Z,35.67
2023-06-04T09:56:52.252Z,35.91
2023-06-04T09:59:19.806Z,35.27
2023-06-04T10:01:47.007Z,36.11
2023-06-04T10:04:14.787Z,35.06
2023-06-04T10:06:42.211Z,35.72
2023-06-04T10:09:10.451Z,35.73
2023-06-04T10:11:54.342Z,34.28
2023-06-04T10:14:28.302Z,34.96
2023-06-04T10:16:55.823Z,35.08
2023-06-04T10:19:23.935Z,34.62
2023-06-04T10:21:51.250Z,35.17
2023-06-04T10:24:18.425Z,35.53
2023-06-04T10:26:45.988Z,35.76
2023-06-04T10:29:13.300Z,35.51
2023-06-04T10:31:42.474Z,35.71
2023-06-04T10:34:09.809Z,36.81
2023-06-04T10:36:45.372Z,35.89
2023-06-04T10:39:13.179Z,35.46
2023-06-04T10:41:40.625Z,36.26
2023-06-04T10:44:07.890Z,35.42
2023-06-04T10:46:40.695Z,34.92
2023-06-04T10:49:10.299Z,34.31
2023-06-04T10:51:42.006Z,34.27
2023-06-04T10:54:09.524Z,34.25
2023-06-04T10:56:37.850Z,33.73
2023-06-04T10:59:18.203Z,33.61
2023-06-04T11:01:45.938Z,33.34
2023-06-04T11:04:26.520Z,33.39
2023-06-04T11:07:04.761Z,32.63
2023-06-04T11:09:34.533Z,32.19
2023-06-04T11:12:02.317Z,32.97
2023-06-04T11:14:30.130Z,33.03
2023-06-04T11:16:57.744Z,32.05
2023-06-04T11:19:25.086Z,32.42
2023-06-04T11:21:52.305Z,31.82
2023-06-04T11:24:19.781Z,31.76
2023-06-04T11:26:56.916Z,31.13
2023-06-04T11:29:34.434Z,32.71
2023-06-04T11:32:01.697Z,32.78
2023-06-04T11:34:30.978Z,31.06
2023-06-04T11:37:08.478Z,30.86
2023-06-04T11:39:36.517Z,31.99
2023-06-04T11:42:06.543Z,31.55
2023-06-04T11:44:35.045Z,31.56
2023-06-04T11:47:02.527Z,31.27
2023-06-04T11:49:30.188Z,31.06
2023-06-04T11:51:57.594Z,31.70
2023-06-04T11:54:24.949Z,31.54
2023-06-04T11:56:52.355Z,32.44
2023-06-04T11:59:19.778Z,31.49
2023-06-04T12:01:47.776Z,31.66
2023-06-04T12:04:16.355Z,30.38
2023-06-04T12:06:59.062Z,29.69
2023-06-04T12:09:30.444Z,30.76
2023-06-04T12:12:02.005Z,32.23
2023-06-04T12:14:29.772Z,31.17
2023-06-04T12:16:58.315Z,29.77
2023-06-04T12:19:27.313Z,30.53
2023-06-04T12:22:02.840Z,29.99
2023-06-04T12:24:31.371Z,30.55
2023-06-04T12:27:05.439Z,29.86
2023-06-04T12:29:32.707Z,29.53
2023-06-04T12:32:05.060Z,29.39
2023-06-04T12:34:33.039Z,29.73
2023-06-04T12:37:00.529Z,29.18
2023-06-04T12:39:28.663Z,29.93
2023-06-04T12:41:56.248Z,29.45
2023-06-04T12:44:23.594Z,28.44
2023-06-04T12:46:51.668Z,29.58
2023-06-04T12:49:19.193Z,29.17
2023-06-04T12:51:46.767Z,29.29
2023-06-04T12:54:14.528Z,28.97
2023-06-04T12:56:44.838Z,30.38
2023-06-04T12:59:12.216Z,29.02
2023-06-04T13:01:39.903Z,29.60
2023-06-04T13:04:07.749Z,30.26
2023-06-04T13:06:36.771Z,29.27
2023-06-04T13:09:10.237Z,29.42
2023-06-04T13:11:42.695Z,30.39
2023-06-04T13:14:10.451Z,30.25
2023-06-04T13:16:39.606Z,28.92
2023-06-04T13:19:08.172Z,29.47
2023-06-04T13:21:37.670Z,27.07
2023-06-04T13:24:08.594Z,27.27
2023-06-04T13:26:36.651Z,28.69
2023-06-04T13:29:04.288Z,28.67
2023-06-04T13:31:32.232Z,29.06
2023-06-04T13:34:11.562Z,29.08
2023-06-04T13:36:49.508Z,29.33
2023-06-04T13:39:17.134Z,28.93
2023-06-04T13:41:44.522Z,28.72
2023-06-04T13:44:11.744Z,30.33
2023-06-04T13:46:39.146Z,29.57
2023-06-04T13:49:06.719Z,29.47
2023-06-04T13:51:33.899Z,28.05
2023-06-04T13:54:01.322Z,27.85
2023-06-04T13:56:28.906Z,28.38
2023-06-04T13:58:56.206Z,28.18
2023-06-04T14:01:23.670Z,27.25
2023-06-04T14:03:51.595Z,27.44
2023-06-04T14:06:19.075Z,28.52
2023-06-04T14:08:46.296Z,28.58
2023-06-04T14:11:13.434Z,28.09
2023-06-04T14:13:42.403Z,27.79
2023-06-04T14:16:09.577Z,28.17
2023-06-04T14:18:37.150Z,28.85
2023-06-04T14:21:04.269Z,27.60
2023-06-04T14:23:32.008Z,27.38
2023-06-04T14:25:59.499Z,27.90
2023-06-04T14:28:27.026Z,29.03
2023-06-04T14:30:54.259Z,26.95
2023-06-04T14:33:21.706Z,27.45
2023-06-04T14:35:48.936Z,27.02
2023-06-04T14:38:17.812Z,27.62
2023-06-04T14:40:46.653Z,27.82
2023-06-04T14:43:14.006Z,28.38
2023-06-04T14:45:41.820Z,28.47
2023-06-04T14:50:40.431Z,28.19
2023-06-04T14:53:08.730Z,28.54
2023-06-04T14:55:37.271Z,27.83
2023-06-04T14:58:05.627Z,28.01
2023-06-04T15:00:33.903Z,28.37
2023-06-04T15:03:04.046Z,29.18
2023-06-04T15:05:32.732Z,28.60
2023-06-04T15:08:00.309Z,28.05
2023-06-04T15:10:27.907Z,27.61
2023-06-04T15:12:55.261Z,27.84
2023-06-04T15:15:22.577Z,27.88
2023-06-04T15:17:50.281Z,29.16
2023-06-04T15:20:17.708Z,28.96
2023-06-04T15:22:45.504Z,30.09
2023-06-04T15:25:13.139Z,29.51
2023-06-04T15:27:42.109Z,29.39
2023-06-04T15:30:09.548Z,28.73
2023-06-04T15:32:37.423Z,28.03
2023-06-04T15:35:05.272Z,28.47
2023-06-04T15:37:32.815Z,28.54
2023-06-04T15:40:02.280Z,28.19
2023-06-04T15:42:29.669Z,28.80
2023-06-04T15:44:56.919Z,28.39
2023-06-04T15:47:24.112Z,28.53
2023-06-04T15:49:51.386Z,29.09
2023-06-04T15:52:20.637Z,29.25
2023-06-04T15:54:49.592Z,29.21
2023-06-04T15:57:17.161Z,29.80
2023-06-04T15:59:44.482Z,28.97
2023-06-04T16:02:12.142Z,29.19
2023-06-04T16:04:39.507Z,29.95
2023-06-04T16:07:07.134Z,30.01
2023-06-04T16:09:34.403Z,29.73
2023-06-04T16:12:01.631Z,28.77
2023-06-04T16:14:29.142Z,29.35
2023-06-04T16:16:56.535Z,29.51
2023-06-04T16:19:23.850Z,30.04
2023-06-04T16:21:51.565Z,30.06
2023-06-04T16:24:19.082Z,30.63
2023-06-04T16:26:46.493Z,30.73
2023-06-04T16:29:14.003Z,31.33
2023-06-04T16:31:41.553Z,31.66
2023-06-04T16:34:09.738Z,30.35
2023-06-04T16:36:39.880Z,30.00
2023-06-04T16:39:07.065Z,30.15
2023-06-04T16:41:36.246Z,30.95
2023-06-04T16:44:03.649Z,30.97
2023-06-04T16:46:31.808Z,30.63
2023-06-04T16:48:59.264Z,29.98
2023-06-04T16:51:26.627Z,30.70
2023-06-04T16:53:54.059Z,30.83
2023-06-04T16:56:22.504Z,31.17
2023-06-04T16:58:50.165Z,31.03
2023-06-04T17:01:19.244Z,31.50
2023-06-04T17:03:46.758Z,31.64
2023-06-04T17:06:14.401Z,31.57
2023-06-04T17:08:42.063Z,32.18
2023-06-04T17:11:10.910Z,31.89
2023-06-04T17:13:38.271Z,31.50
2023-06-04T17:16:06.241Z,31.86
2023-06-04T17:18:33.693Z,32.34
2023-06-04T17:21:01.251Z,32.08
2023-06-04T17:23:29.112Z,31.51
2023-06-04T17:25:56.868Z,31.99
2023-06-04T17:28:24.330Z,32.31
2023-06-04T17:30:51.875Z,32.25
2023-06-04T17:33:19.354Z,32.38
2023-06-04T17:35:46.669Z,32.41
2023-06-04T17:38:13.826Z,33.16
2023-06-04T17:40:41.152Z,33.60
2023-06-04T17:43:08.506Z,33.34
2023-06-04T17:45:36.007Z,33.91
2023-06-04T17:48:03.452Z,33.89
2023-06-04T17:50:30.866Z,33.16
2023-06-04T17:52:59.973Z,33.84
2023-06-04T17:55:27.877Z,33.78
2023-06-04T17:57:56.808Z,33.98
2023-06-04T18:00:24.296Z,34.22
2023-06-04T18:02:51.508Z,33.79
2023-06-04T18:05:19.190Z,33.74
2023-06-04T18:07:46.617Z,34.33
2023-06-04T18:10:15.298Z,33.92
2023-06-04T18:12:45.778Z,34.13
2023-06-04T18:15:16.066Z,34.10
2023-06-04T18:17:43.981Z,34.59
2023-06-04T18:20:12.026Z,34.49
2023-06-04T18:22:39.544Z,34.86
2023-06-04T18:25:09.154Z,34.54
2023-06-04T18:27:38.127Z,35.06
2023-06-04T18:30:07.630Z,34.82
2023-06-04T18:32:36.647Z,34.83
2023-06-04T18:35:04.573Z,34.94
2023-06-04T18:37:32.181Z,34.85
2023-06-04T18:39:59.398Z,35.13
2023-06-04T18:42:30.854Z,35.15
2023-06-04T18:45:00.474Z,35.12
2023-06-04T18:47:28.300Z,35.17
2023-06-04T18:49:56.882Z,35.72
2023-06-04T18:52:24.775Z,36.13
2023-06-04T18:54:52.710Z,35.91
2023-06-04T18:57:20.188Z,35.91
2023-06-04T18:59:47.344Z,36.12
2023-06-04T19:02:15.241Z,35.94
2023-06-04T19:04:45.103Z,36.15
2023-06-04T19:07:12.270Z,36.25
2023-06-04T19:09:39.555Z,36.55
2023-06-04T19:12:07.336Z,36.22
2023-06-04T19:14:35.151Z,36.46
2023-06-04T19:17:03.430Z,36.46
2023-06-04T19:19:30.680Z,36.96
2023-06-04T19:21:59.359Z,37.07
2023-06-04T19:24:26.705Z,36.75
2023-06-04T19:26:54.700Z,37.28
2023-06-04T19:29:22.364Z,37.43
2023-06-04T19:31:49.610Z,37.18
2023-06-04T19:34:17.091Z,38.02
2023-06-04T19:36:44.313Z,37.87
2023-06-04T19:39:11.745Z,37.86
2023-06-04T19:41:39.836Z,37.63
2023-06-04T19:44:07.258Z,38.04
2023-06-04T19:46:35.110Z,37.92
2023-06-04T19:49:02.470Z,38.02
2023-06-04T19:51:30.167Z,38.37
2023-06-04T19:53:57.460Z,38.50
2023-06-04T19:56:24.799Z,39.17
2023-06-04T19:58:52.668Z,40.06
2023-06-04T20:01:20.052Z,40.63
2023-06-04T20:03:47.572Z,40.61
2023-06-04T20:06:14.877Z,40.14
2023-06-04T20:08:42.682Z,40.24
2023-06-04T20:11:12.057Z,40.37
2023-06-04T20:13:41.695Z,40.08
2023-06-04T20:16:09.270Z,39.96
2023-06-04T20:18:36.964Z,40.92
2023-06-04T20:21:04.563Z,41.12
2023-06-04T20:23:32.355Z,41.05
2023-06-04T20:26:04.568Z,40.65
2023-06-04T20:28:32.115Z,41.46
2023-06-04T20:30:59.426Z,42.41
2023-06-04T20:33:27.384Z,42.57
2023-06-04T20:35:55.155Z,42.82
2023-06-04T20:38:22.849Z,43.68
2023-06-04T20:40:50.205Z,43.54
2023-06-04T20:43:19.031Z,44.05
2023-06-04T20:45:46.291Z,43.72
2023-06-04T20:48:13.630Z,44.08
2023-06-04T20:50:41.771Z,44.11
2023-06-04T20:53:12.720Z,44.27
2023-06-04T20:55:39.909Z,44.44
2023-06-04T20:58:07.465Z,44.69
2023-06-04T21:00:34.901Z,44.62
2023-06-04T21:03:02.155Z,44.31
2023-06-04T21:05:29.559Z,44.27
2023-06-04T21:07:59.944Z,45.01
2023-06-04T21:10:28.639Z,45.61
2023-06-04T21:12:56.804Z,45.55
2023-06-04T21:15:24.912Z,46.15
2023-06-04T21:17:52.955Z,46.36
2023-06-04T21:20:20.453Z,46.40
2023-06-04T21:22:48.186Z,46.62
2023-06-04T21:25:15.506Z,47.09
2023-06-04T21:27:42.905Z,47.56
2023-06-04T21:30:10.236Z,47.77
2023-06-04T21:32:38.082Z,47.92
2023-06-04T21:35:05.944Z,48.75
2023-06-04T21:37:33.551Z,49.09
2023-06-04T21:40:00.773Z,48.88
2023-06-04T21:42:27.962Z,49.37
2023-06-04T21:44:55.621Z,49.03
2023-06-04T21:47:23.187Z,48.88
2023-06-04T21:49:50.696Z,49.06
2023-06-04T21:52:25.567Z,49.27
2023-06-04T21:54:53.520Z,49.74
2023-06-04T21:57:20.882Z,49.39
2023-06-04T21:59:48.110Z,49.53
2023-06-04T22:02:15.932Z,49.40
2023-06-04T22:04:43.646Z,49.40
2023-06-04T22:07:12.298Z,49.94
2023-06-04T22:09:40.086Z,49.58
2023-06-04T22:12:08.044Z,50.15
2023-06-04T22:14:36.526Z,50.31
2023-06-04T22:17:03.750Z,49.95
2023-06-04T22:19:31.595Z,50.04
2023-06-04T22:21:59.043Z,49.65
2023-06-04T22:24:26.397Z,49.78
2023-06-04T22:26:53.529Z,49.99
2023-06-04T22:29:21.301Z,49.83
2023-06-04T22:31:49.205Z,50.23
2023-06-04T22:34:16.416Z,49.74
2023-06-04T22:36:45.783Z,49.08
2023-06-04T22:39:13.230Z,48.58
2023-06-04T22:41:40.918Z,48.54
2023-06-04T22:44:08.376Z,49.12
2023-06-04T22:46:36.568Z,49.24
2023-06-04T22:49:03.726Z,49.64
2023-06-04T22:51:31.759Z,49.48
2023-06-04T22:53:58.980Z,49.86
2023-06-04T22:56:26.400Z,49.89
2023-06-04T22:58:53.567Z,50.12
2023-06-04T23:01:20.834Z,50.45
2023-06-04T23:03:48.476Z,50.59
2023-06-04T23:06:15.901Z,51.20
2023-06-04T23:08:43.191Z,51.11
2023-06-04T23:11:10.570Z,51.04
2023-06-04T23:13:37.926Z,50.93
2023-06-04T23:16:05.935Z,51.39
2023-06-04T23:18:33.889Z,52.14
2023-06-04T23:21:01.102Z,52.21
2023-06-04T23:23:28.510Z,52.20
2023-06-04T23:25:55.640Z,52.28
2023-06-04T23:28:24.570Z,52.23
2023-06-04T23:30:51.819Z,52.14
2023-06-04T23:33:19.472Z,52.04
2023-06-04T23:35:48.957Z,52.21
2023-06-04T23:38:16.320Z,52.11
2023-06-04T23:40:43.613Z,52.61
2023-06-04T23:43:11.417Z,52.43
2023-06-04T23:45:39.121Z,52.46
2023-06-04T23:48:06.588Z,52.45
2023-06-04T23:50:33.937Z,52.70
2023-06-04T23:53:01.460Z,52.38
2023-06-04T23:55:28.605Z,52.64
2023-06-04T23:57:56.451Z,52.69
